San Carmen — WSD2145 — position and weather

sailwx.info

Track history (hours):
 
Tides and Currents Weather Stations Pressure Air Temp Water Temp Dewpoint Dewpoint Depression Visibility Wind Speed Wind Dir Waves Ship Positions

San Carmen

Owner: BUFFALO MARINE SERVICE INC, HOUSTON, TX. More information available from US FCC via Universal Licensing System and Coast Guard Vessel Documentation Center.

Last reported at 2018-Jun-25 05:15 UTC. Time now 2018-Jun-25 15:55 UTC.
Position N 29°46' W 095°06'.

Length 20 m; draft 2.1 m.

Type: Tug. MMSI: 366941810.

Date/timePositionNaut miles runAvg speedWind from/ knotsBaromVisibWave heightAir tempDewpointWater temp
2018-Jun-25 05:15N 29°46' W 095°06'0 0.0
2018-Jun-25 04:12N 29°46' W 095°06'6 0.7
2018-Jun-24 19:31N 29°43' W 095°01'0 5.6
2018-Jun-24 19:30N 29°43' W 095°01'3 5.6
2018-Jun-24 18:55N 29°40' W 094°59'3 6.3
2018-Jun-24 18:30N 29°38' W 094°58'2 4.3
2018-Jun-24 18:00N 29°37' W 094°60'1 1.3
2018-Jun-24 17:30N 29°37' W 095°01'0 0.0
2018-Jun-24 17:00N 29°37' W 095°01'0 0.0
2018-Jun-24 16:30N 29°37' W 095°01'0 0.0
2018-Jun-24 16:00N 29°37' W 095°01'0 0.0
2018-Jun-24 15:30N 29°37' W 095°01'0 0.0
2018-Jun-24 15:00N 29°37' W 095°01'0 0.0
2018-Jun-24 14:30N 29°37' W 095°01'0 0.0
2018-Jun-24 14:00N 29°37' W 095°01'0 0.0
2018-Jun-24 13:30N 29°37' W 095°01'0 0.0
2018-Jun-24 13:00N 29°37' W 095°01'0 0.0
2018-Jun-24 12:30N 29°37' W 095°01'0 0.0
2018-Jun-24 12:00N 29°37' W 095°01'0 0.0
2018-Jun-24 11:30N 29°37' W 095°01'0 0.0
2018-Jun-24 11:00N 29°37' W 095°01'0 0.0
2018-Jun-24 10:30N 29°37' W 095°01'0 0.0
2018-Jun-24 10:00N 29°37' W 095°01'0 0.0
2018-Jun-24 09:30N 29°37' W 095°01'0 0.0
2018-Jun-24 09:00N 29°37' W 095°01'0 0.0
2018-Jun-24 08:30N 29°37' W 095°01'0 0.1
2018-Jun-24 08:00N 29°37' W 095°01'0 0.1
2018-Jun-24 07:30N 29°37' W 095°01'0 0.0
2018-Jun-24 07:01N 29°37' W 095°01'0 0.0
2018-Jun-24 06:30N 29°37' W 095°01'0 0.0
2018-Jun-24 06:00N 29°37' W 095°01'0 0.0
2018-Jun-24 05:31N 29°37' W 095°01'0 0.0
2018-Jun-24 05:00N 29°37' W 095°01'1 1.4
2018-Jun-24 04:30N 29°37' W 095°01'0 0.5
2018-Jun-24 04:00N 29°37' W 095°01'3 5.2
2018-Jun-24 03:25N 29°37' W 094°58'2 5.6
2018-Jun-24 03:00N 29°39' W 094°58'6 3.9
2018-Jun-24 01:24N 29°44' W 095°03'3 0.2
2018-Jun-23 12:12N 29°45' W 095°06'0 0.0
2018-Jun-23 11:57N 29°45' W 095°06'0 0.0
2018-Jun-23 11:30N 29°45' W 095°06'0 0.0
2018-Jun-23 11:00N 29°45' W 095°06'0 0.0
2018-Jun-23 10:14N 29°45' W 095°06'0 0.0
2018-Jun-23 09:57N 29°45' W 095°06'0 0.0
2018-Jun-23 09:24N 29°45' W 095°06'0 0.0
2018-Jun-23 08:53N 29°45' W 095°06'0 0.0
2018-Jun-23 08:29N 29°45' W 095°06'0 0.0
2018-Jun-23 07:59N 29°45' W 095°06'0 0.0
2018-Jun-23 07:22N 29°45' W 095°06'0 0.0
2018-Jun-23 07:00N 29°45' W 095°06'0 0.0
2018-Jun-23 06:30N 29°45' W 095°06'0 0.0
2018-Jun-23 06:00N 29°45' W 095°06'0 0.0
2018-Jun-23 05:30N 29°45' W 095°06'0 0.0
2018-Jun-23 05:00N 29°45' W 095°06'0 0.0
2018-Jun-23 04:30N 29°45' W 095°06'0 0.0
2018-Jun-23 03:54N 29°45' W 095°06'0 0.0
2018-Jun-23 03:30N 29°45' W 095°06'0 0.0
2018-Jun-23 03:00N 29°45' W 095°06'0 0.0
2018-Jun-23 02:17N 29°45' W 095°06'0 0.0
2018-Jun-23 01:53N 29°45' W 095°06'9 0.5
2018-Jun-22 05:37N 29°43' W 095°17'0 0.0
2018-Jun-22 05:28N 29°43' W 095°17'0 0.0
2018-Jun-22 04:54N 29°43' W 095°17'0 0.0
2018-Jun-20 01:39N 29°44' W 095°16'13 2.6
2018-Jun-19 20:36N 29°44' W 095°02'2 5.4
2018-Jun-19 20:19N 29°42' W 095°01'2 5.8
2018-Jun-19 20:00N 29°41' W 094°59'5 6.2
2018-Jun-19 19:11N 29°37' W 094°57'1 6.3
2018-Jun-19 18:57N 29°35' W 094°56'14 6.8
2018-Jun-19 16:53N 29°23' W 094°49'3 7.8
2018-Jun-19 16:28N 29°20' W 094°47'1 1.0
2018-Jun-19 15:12N 29°19' W 094°47'0 0.1
2018-Jun-19 14:58N 29°19' W 094°47'0 0.3
2018-Jun-19 14:30N 29°19' W 094°47'0 0.2
2018-Jun-19 13:58N 29°19' W 094°47'0 0.0
2018-Jun-19 13:30N 29°19' W 094°47'0 0.0
2018-Jun-19 12:35N 29°19' W 094°47'0 2.7
2018-Jun-19 12:29N 29°19' W 094°47'5 0.7
2018-Jun-19 05:30N 29°24' W 094°45'10 2.4
2018-Jun-19 01:31N 29°29' W 094°36'1 5.9
2018-Jun-19 01:20N 29°30' W 094°35'2 5.8
2018-Jun-19 01:00N 29°30' W 094°33'6 5.7
2018-Jun-19 00:01N 29°34' W 094°28'0 6.3
2018-Jun-19 00:00N 29°34' W 094°28'3 5.0
2018-Jun-18 23:25N 29°36' W 094°25'2 5.4
2018-Jun-18 23:00N 29°36' W 094°22'3 6.0
2018-Jun-18 22:30N 29°38' W 094°19'3 6.3
2018-Jun-18 22:00N 29°39' W 094°16'3 6.1
2018-Jun-18 21:30N 29°40' W 094°13'3 5.9
2018-Jun-18 21:00N 29°41' W 094°10'3 5.9
2018-Jun-18 20:30N 29°43' W 094°07'3 5.8
2018-Jun-18 20:00N 29°45' W 094°04'3 5.9
2018-Jun-18 19:30N 29°47' W 094°02'3 5.9
2018-Jun-18 19:00N 29°49' W 093°60'1 1.9
2018-Jun-18 18:29N 29°49' W 093°58'0 0.0
2018-Jun-18 18:00N 29°49' W 093°58'1 2.1
2018-Jun-18 17:30N 29°50' W 093°57'3 5.1
2018-Jun-18 17:00N 29°52' W 093°56'3 5.6
2018-Jun-18 16:30N 29°54' W 093°54'3 5.5
2018-Jun-18 16:00N 29°56' W 093°52'3 5.0
2018-Jun-18 15:30N 29°58' W 093°50'3 5.7
2018-Jun-18 15:00N 29°59' W 093°47'3 5.1
2018-Jun-18 14:30N 30°01' W 093°45'3 5.7
2018-Jun-18 14:00N 30°03' W 093°43'3 5.9
2018-Jun-18 13:30N 30°04' W 093°40'3 5.9
2018-Jun-18 13:00N 30°04' W 093°36'3 5.7
2018-Jun-18 12:30N 30°04' W 093°33'3 5.7
2018-Jun-18 12:00N 30°04' W 093°30'3 5.5
2018-Jun-18 11:30N 30°04' W 093°26'2 4.9
2018-Jun-18 11:00N 30°04' W 093°24'1 2.9
2018-Jun-18 10:30N 30°04' W 093°22'2 3.5
2018-Jun-18 10:00N 30°05' W 093°20'2 4.0
2018-Jun-18 09:30N 30°07' W 093°20'3 6.1
2018-Jun-18 09:00N 30°10' W 093°19'2 3.0
2018-Jun-18 08:30N 30°11' W 093°18'0 0.0
2018-Jun-18 08:00N 30°11' W 093°18'0 0.0
2018-Jun-18 07:30N 30°11' W 093°18'0 0.0
2018-Jun-18 07:00N 30°11' W 093°18'0 0.0
2018-Jun-18 06:30N 30°11' W 093°18'0 0.0
2018-Jun-18 06:00N 30°11' W 093°18'0 0.0
2018-Jun-18 05:30N 30°11' W 093°18'0 0.0
2018-Jun-18 05:00N 30°11' W 093°18'0 0.0
2018-Jun-18 04:30N 30°11' W 093°18'0 0.0
2018-Jun-18 03:59N 30°11' W 093°18'0 0.0
2018-Jun-18 03:30N 30°11' W 093°18'0 0.0
2018-Jun-18 03:00N 30°11' W 093°18'0 0.0
2018-Jun-18 02:30N 30°11' W 093°18'0 0.0
2018-Jun-18 02:00N 30°11' W 093°18'0 0.0
2018-Jun-18 01:30N 30°11' W 093°18'0 0.0
2018-Jun-18 01:00N 30°11' W 093°18'0 0.0
2018-Jun-18 00:30N 30°11' W 093°18'0 0.0
2018-Jun-18 00:00N 30°11' W 093°18'0 0.0
2018-Jun-17 23:28N 30°11' W 093°18'0 0.0
2018-Jun-17 23:00N 30°11' W 093°18'0 0.0
2018-Jun-17 22:30N 30°11' W 093°18'0 0.0
2018-Jun-17 22:00N 30°11' W 093°18'0 0.0
2018-Jun-17 21:30N 30°11' W 093°18'0 0.0
2018-Jun-17 21:00N 30°11' W 093°18'0 0.0
2018-Jun-17 20:30N 30°11' W 093°18'0 0.0
2018-Jun-17 20:00N 30°11' W 093°18'1 1.0
2018-Jun-17 19:30N 30°11' W 093°19'3 5.5
2018-Jun-17 19:00N 30°08' W 093°20'3 5.4
2018-Jun-17 18:30N 30°05' W 093°20'1 2.7
2018-Jun-17 18:00N 30°04' W 093°21'2 3.0
2018-Jun-17 17:30N 30°04' W 093°22'2 3.9
2018-Jun-17 17:00N 30°04' W 093°25'2 4.1
2018-Jun-17 16:30N 30°04' W 093°27'2 3.9
2018-Jun-17 16:00N 30°04' W 093°29'2 4.2
2018-Jun-17 15:30N 30°04' W 093°32'2 4.4
2018-Jun-17 15:00N 30°04' W 093°34'2 4.7
2018-Jun-17 14:30N 30°04' W 093°37'3 5.4
2018-Jun-17 14:00N 30°04' W 093°40'3 5.5
2018-Jun-17 13:30N 30°03' W 093°43'3 5.5
2018-Jun-17 13:00N 30°01' W 093°45'3 5.7
2018-Jun-17 12:29N 29°59' W 093°48'3 5.7
2018-Jun-17 12:00N 29°58' W 093°51'3 5.5
2018-Jun-17 11:30N 29°56' W 093°52'3 5.9
2018-Jun-17 11:00N 29°54' W 093°54'3 5.6
2018-Jun-17 10:30N 29°52' W 093°56'2 4.9
2018-Jun-17 10:00N 29°49' W 093°58'2 4.3
2018-Jun-17 09:30N 29°48' W 093°60'2 4.3
2018-Jun-17 09:00N 29°47' W 094°02'2 4.3
2018-Jun-17 08:30N 29°45' W 094°04'2 4.4
2018-Jun-17 08:00N 29°44' W 094°06'2 4.5
2018-Jun-17 07:30N 29°43' W 094°08'2 4.4
2018-Jun-17 07:00N 29°41' W 094°10'2 4.4
2018-Jun-17 06:30N 29°41' W 094°12'1 2.0
2018-Jun-17 06:00N 29°40' W 094°13'2 4.5
2018-Jun-17 05:30N 29°39' W 094°15'2 4.3
2018-Jun-17 05:00N 29°38' W 094°18'2 4.1
2018-Jun-17 04:30N 29°37' W 094°20'2 4.1
2018-Jun-17 04:00N 29°36' W 094°22'2 3.7
2018-Jun-17 03:29N 29°36' W 094°24'21 4.6
2018-Jun-16 23:04N 29°25' W 094°44'0 3.4
2018-Jun-16 22:56N 29°25' W 094°44'2 3.8
2018-Jun-16 22:23N 29°23' W 094°46'2 5.2
2018-Jun-16 22:00N 29°22' W 094°48'1 2.3
2018-Jun-16 21:30N 29°23' W 094°49'2 4.1
2018-Jun-16 20:59N 29°25' W 094°50'9 5.4
2018-Jun-16 19:24N 29°32' W 094°54'2 5.4
2018-Jun-16 19:00N 29°34' W 094°56'3 5.6
2018-Jun-16 18:28N 29°37' W 094°57'2 5.0
2018-Jun-16 18:00N 29°39' W 094°58'3 5.6
2018-Jun-16 17:30N 29°41' W 094°59'3 0.2
2018-Jun-16 00:51N 29°44' W 095°02'2 4.9
2018-Jun-16 00:30N 29°42' W 095°01'2 5.0
2018-Jun-16 00:00N 29°41' W 094°59'4 5.1
2018-Jun-15 23:17N 29°37' W 094°57'2 5.4
2018-Jun-15 22:53N 29°35' W 094°56'13 4.5
2018-Jun-15 19:54N 29°23' W 094°49'2 5.5
2018-Jun-15 19:30N 29°22' W 094°47'2 4.7
2018-Jun-15 19:00N 29°19' W 094°47'2 3.8
2018-Jun-15 18:30N 29°19' W 094°49'0 0.0
2018-Jun-15 18:00N 29°19' W 094°49'0 0.0
2018-Jun-15 17:30N 29°19' W 094°49'0 0.0
2018-Jun-15 17:00N 29°19' W 094°49'0 0.0
2018-Jun-15 16:30N 29°19' W 094°49'0 0.0
2018-Jun-15 16:00N 29°19' W 094°49'0 0.0
2018-Jun-15 15:00N 29°19' W 094°49'0 0.0
2018-Jun-15 14:30N 29°19' W 094°49'0 0.0
2018-Jun-15 14:00N 29°19' W 094°49'0 0.0
2018-Jun-15 13:30N 29°19' W 094°49'0 0.0
2018-Jun-15 13:00N 29°19' W 094°49'0 0.0
2018-Jun-15 12:30N 29°19' W 094°49'0 0.7
2018-Jun-15 11:59N 29°19' W 094°48'1 2.4
2018-Jun-15 11:27N 29°19' W 094°47'  
Track history (hours):
 
Tides and Currents Weather Stations Pressure Air Temp Water Temp Dewpoint Dewpoint Depression Visibility Wind Speed Wind Dir Waves Ship Positions

San Carmen

Owner: BUFFALO MARINE SERVICE INC, HOUSTON, TX. More information available from US FCC via Universal Licensing System and Coast Guard Vessel Documentation Center.

Last reported at 2018-Jun-25 05:15 UTC. Time now 2018-Jun-25 15:55 UTC.
Position N 29°46' W 095°06'.

Length 20 m; draft 2.1 m.

Type: Tug. MMSI: 366941810.

Date/timePositionNaut miles runAvg speedWind from/ knotsBaromVisibWave heightAir tempDewpointWater temp
2018-Jun-25 05:15N 29°46' W 095°06'0 0.0
2018-Jun-25 04:12N 29°46' W 095°06'6 0.7
2018-Jun-24 19:31N 29°43' W 095°01'0 5.6
2018-Jun-24 19:30N 29°43' W 095°01'3 5.6
2018-Jun-24 18:55N 29°40' W 094°59'3 6.3
2018-Jun-24 18:30N 29°38' W 094°58'2 4.3
2018-Jun-24 18:00N 29°37' W 094°60'1 1.3
2018-Jun-24 17:30N 29°37' W 095°01'0 0.0
2018-Jun-24 17:00N 29°37' W 095°01'0 0.0
2018-Jun-24 16:30N 29°37' W 095°01'0 0.0
2018-Jun-24 16:00N 29°37' W 095°01'0 0.0
2018-Jun-24 15:30N 29°37' W 095°01'0 0.0
2018-Jun-24 15:00N 29°37' W 095°01'0 0.0
2018-Jun-24 14:30N 29°37' W 095°01'0 0.0
2018-Jun-24 14:00N 29°37' W 095°01'0 0.0
2018-Jun-24 13:30N 29°37' W 095°01'0 0.0
2018-Jun-24 13:00N 29°37' W 095°01'0 0.0
2018-Jun-24 12:30N 29°37' W 095°01'0 0.0
2018-Jun-24 12:00N 29°37' W 095°01'0 0.0
2018-Jun-24 11:30N 29°37' W 095°01'0 0.0
2018-Jun-24 11:00N 29°37' W 095°01'0 0.0
2018-Jun-24 10:30N 29°37' W 095°01'0 0.0
2018-Jun-24 10:00N 29°37' W 095°01'0 0.0
2018-Jun-24 09:30N 29°37' W 095°01'0 0.0
2018-Jun-24 09:00N 29°37' W 095°01'0 0.0
2018-Jun-24 08:30N 29°37' W 095°01'0 0.1
2018-Jun-24 08:00N 29°37' W 095°01'0 0.1
2018-Jun-24 07:30N 29°37' W 095°01'0 0.0
2018-Jun-24 07:01N 29°37' W 095°01'0 0.0
2018-Jun-24 06:30N 29°37' W 095°01'0 0.0
2018-Jun-24 06:00N 29°37' W 095°01'0 0.0
2018-Jun-24 05:31N 29°37' W 095°01'0 0.0
2018-Jun-24 05:00N 29°37' W 095°01'1 1.4
2018-Jun-24 04:30N 29°37' W 095°01'0 0.5
2018-Jun-24 04:00N 29°37' W 095°01'3 5.2
2018-Jun-24 03:25N 29°37' W 094°58'2 5.6
2018-Jun-24 03:00N 29°39' W 094°58'6 3.9
2018-Jun-24 01:24N 29°44' W 095°03'3 0.2
2018-Jun-23 12:12N 29°45' W 095°06'0 0.0
2018-Jun-23 11:57N 29°45' W 095°06'0 0.0
2018-Jun-23 11:30N 29°45' W 095°06'0 0.0
2018-Jun-23 11:00N 29°45' W 095°06'0 0.0
2018-Jun-23 10:14N 29°45' W 095°06'0 0.0
2018-Jun-23 09:57N 29°45' W 095°06'0 0.0
2018-Jun-23 09:24N 29°45' W 095°06'0 0.0
2018-Jun-23 08:53N 29°45' W 095°06'0 0.0
2018-Jun-23 08:29N 29°45' W 095°06'0 0.0
2018-Jun-23 07:59N 29°45' W 095°06'0 0.0
2018-Jun-23 07:22N 29°45' W 095°06'0 0.0
2018-Jun-23 07:00N 29°45' W 095°06'0 0.0
2018-Jun-23 06:30N 29°45' W 095°06'0 0.0
2018-Jun-23 06:00N 29°45' W 095°06'0 0.0
2018-Jun-23 05:30N 29°45' W 095°06'0 0.0
2018-Jun-23 05:00N 29°45' W 095°06'0 0.0
2018-Jun-23 04:30N 29°45' W 095°06'0 0.0
2018-Jun-23 03:54N 29°45' W 095°06'0 0.0
2018-Jun-23 03:30N 29°45' W 095°06'0 0.0
2018-Jun-23 03:00N 29°45' W 095°06'0 0.0
2018-Jun-23 02:17N 29°45' W 095°06'0 0.0
2018-Jun-23 01:53N 29°45' W 095°06'9 0.5
2018-Jun-22 05:37N 29°43' W 095°17'0 0.0
2018-Jun-22 05:28N 29°43' W 095°17'0 0.0
2018-Jun-22 04:54N 29°43' W 095°17'0 0.0
2018-Jun-20 01:39N 29°44' W 095°16'13 2.6
2018-Jun-19 20:36N 29°44' W 095°02'2 5.4
2018-Jun-19 20:19N 29°42' W 095°01'2 5.8
2018-Jun-19 20:00N 29°41' W 094°59'5 6.2
2018-Jun-19 19:11N 29°37' W 094°57'1 6.3
2018-Jun-19 18:57N 29°35' W 094°56'14 6.8
2018-Jun-19 16:53N 29°23' W 094°49'3 7.8
2018-Jun-19 16:28N 29°20' W 094°47'1 1.0
2018-Jun-19 15:12N 29°19' W 094°47'0 0.1
2018-Jun-19 14:58N 29°19' W 094°47'0 0.3
2018-Jun-19 14:30N 29°19' W 094°47'0 0.2
2018-Jun-19 13:58N 29°19' W 094°47'0 0.0
2018-Jun-19 13:30N 29°19' W 094°47'0 0.0
2018-Jun-19 12:35N 29°19' W 094°47'0 2.7
2018-Jun-19 12:29N 29°19' W 094°47'5 0.7
2018-Jun-19 05:30N 29°24' W 094°45'10 2.4
2018-Jun-19 01:31N 29°29' W 094°36'1 5.9
2018-Jun-19 01:20N 29°30' W 094°35'2 5.8
2018-Jun-19 01:00N 29°30' W 094°33'6 5.7
2018-Jun-19 00:01N 29°34' W 094°28'0 6.3
2018-Jun-19 00:00N 29°34' W 094°28'3 5.0
2018-Jun-18 23:25N 29°36' W 094°25'2 5.4
2018-Jun-18 23:00N 29°36' W 094°22'3 6.0
2018-Jun-18 22:30N 29°38' W 094°19'3 6.3
2018-Jun-18 22:00N 29°39' W 094°16'3 6.1
2018-Jun-18 21:30N 29°40' W 094°13'3 5.9
2018-Jun-18 21:00N 29°41' W 094°10'3 5.9
2018-Jun-18 20:30N 29°43' W 094°07'3 5.8
2018-Jun-18 20:00N 29°45' W 094°04'3 5.9
2018-Jun-18 19:30N 29°47' W 094°02'3 5.9
2018-Jun-18 19:00N 29°49' W 093°60'1 1.9
2018-Jun-18 18:29N 29°49' W 093°58'0 0.0
2018-Jun-18 18:00N 29°49' W 093°58'1 2.1
2018-Jun-18 17:30N 29°50' W 093°57'3 5.1
2018-Jun-18 17:00N 29°52' W 093°56'3 5.6
2018-Jun-18 16:30N 29°54' W 093°54'3 5.5
2018-Jun-18 16:00N 29°56' W 093°52'3 5.0
2018-Jun-18 15:30N 29°58' W 093°50'3 5.7
2018-Jun-18 15:00N 29°59' W 093°47'3 5.1
2018-Jun-18 14:30N 30°01' W 093°45'3 5.7
2018-Jun-18 14:00N 30°03' W 093°43'3 5.9
2018-Jun-18 13:30N 30°04' W 093°40'3 5.9
2018-Jun-18 13:00N 30°04' W 093°36'3 5.7
2018-Jun-18 12:30N 30°04' W 093°33'3 5.7
2018-Jun-18 12:00N 30°04' W 093°30'3 5.5
2018-Jun-18 11:30N 30°04' W 093°26'2 4.9
2018-Jun-18 11:00N 30°04' W 093°24'1 2.9
2018-Jun-18 10:30N 30°04' W 093°22'2 3.5
2018-Jun-18 10:00N 30°05' W 093°20'2 4.0
2018-Jun-18 09:30N 30°07' W 093°20'3 6.1
2018-Jun-18 09:00N 30°10' W 093°19'2 3.0
2018-Jun-18 08:30N 30°11' W 093°18'0 0.0
2018-Jun-18 08:00N 30°11' W 093°18'0 0.0
2018-Jun-18 07:30N 30°11' W 093°18'0 0.0
2018-Jun-18 07:00N 30°11' W 093°18'0 0.0
2018-Jun-18 06:30N 30°11' W 093°18'0 0.0
2018-Jun-18 06:00N 30°11' W 093°18'0 0.0
2018-Jun-18 05:30N 30°11' W 093°18'0 0.0
2018-Jun-18 05:00N 30°11' W 093°18'0 0.0
2018-Jun-18 04:30N 30°11' W 093°18'0 0.0
2018-Jun-18 03:59N 30°11' W 093°18'0 0.0
2018-Jun-18 03:30N 30°11' W 093°18'0 0.0
2018-Jun-18 03:00N 30°11' W 093°18'0 0.0
2018-Jun-18 02:30N 30°11' W 093°18'0 0.0
2018-Jun-18 02:00N 30°11' W 093°18'0 0.0
2018-Jun-18 01:30N 30°11' W 093°18'0 0.0
2018-Jun-18 01:00N 30°11' W 093°18'0 0.0
2018-Jun-18 00:30N 30°11' W 093°18'0 0.0
2018-Jun-18 00:00N 30°11' W 093°18'0 0.0
2018-Jun-17 23:28N 30°11' W 093°18'0 0.0
2018-Jun-17 23:00N 30°11' W 093°18'0 0.0
2018-Jun-17 22:30N 30°11' W 093°18'0 0.0
2018-Jun-17 22:00N 30°11' W 093°18'0 0.0
2018-Jun-17 21:30N 30°11' W 093°18'0 0.0
2018-Jun-17 21:00N 30°11' W 093°18'0 0.0
2018-Jun-17 20:30N 30°11' W 093°18'0 0.0
2018-Jun-17 20:00N 30°11' W 093°18'1 1.0
2018-Jun-17 19:30N 30°11' W 093°19'3 5.5
2018-Jun-17 19:00N 30°08' W 093°20'3 5.4
2018-Jun-17 18:30N 30°05' W 093°20'1 2.7
2018-Jun-17 18:00N 30°04' W 093°21'2 3.0
2018-Jun-17 17:30N 30°04' W 093°22'2 3.9
2018-Jun-17 17:00N 30°04' W 093°25'2 4.1
2018-Jun-17 16:30N 30°04' W 093°27'2 3.9
2018-Jun-17 16:00N 30°04' W 093°29'2 4.2
2018-Jun-17 15:30N 30°04' W 093°32'2 4.4
2018-Jun-17 15:00N 30°04' W 093°34'2 4.7
2018-Jun-17 14:30N 30°04' W 093°37'3 5.4
2018-Jun-17 14:00N 30°04' W 093°40'3 5.5
2018-Jun-17 13:30N 30°03' W 093°43'3 5.5
2018-Jun-17 13:00N 30°01' W 093°45'3 5.7
2018-Jun-17 12:29N 29°59' W 093°48'3 5.7
2018-Jun-17 12:00N 29°58' W 093°51'3 5.5
2018-Jun-17 11:30N 29°56' W 093°52'3 5.9
2018-Jun-17 11:00N 29°54' W 093°54'3 5.6
2018-Jun-17 10:30N 29°52' W 093°56'2 4.9
2018-Jun-17 10:00N 29°49' W 093°58'2 4.3
2018-Jun-17 09:30N 29°48' W 093°60'2 4.3
2018-Jun-17 09:00N 29°47' W 094°02'2 4.3
2018-Jun-17 08:30N 29°45' W 094°04'2 4.4
2018-Jun-17 08:00N 29°44' W 094°06'2 4.5
2018-Jun-17 07:30N 29°43' W 094°08'2 4.4
2018-Jun-17 07:00N 29°41' W 094°10'2 4.4
2018-Jun-17 06:30N 29°41' W 094°12'1 2.0
2018-Jun-17 06:00N 29°40' W 094°13'2 4.5
2018-Jun-17 05:30N 29°39' W 094°15'2 4.3
2018-Jun-17 05:00N 29°38' W 094°18'2 4.1
2018-Jun-17 04:30N 29°37' W 094°20'2 4.1
2018-Jun-17 04:00N 29°36' W 094°22'2 3.7
2018-Jun-17 03:29N 29°36' W 094°24'21 4.6
2018-Jun-16 23:04N 29°25' W 094°44'0 3.4
2018-Jun-16 22:56N 29°25' W 094°44'2 3.8
2018-Jun-16 22:23N 29°23' W 094°46'2 5.2
2018-Jun-16 22:00N 29°22' W 094°48'1 2.3
2018-Jun-16 21:30N 29°23' W 094°49'2 4.1
2018-Jun-16 20:59N 29°25' W 094°50'9 5.4
2018-Jun-16 19:24N 29°32' W 094°54'2 5.4
2018-Jun-16 19:00N 29°34' W 094°56'3 5.6
2018-Jun-16 18:28N 29°37' W 094°57'2 5.0
2018-Jun-16 18:00N 29°39' W 094°58'3 5.6
2018-Jun-16 17:30N 29°41' W 094°59'3 0.2
2018-Jun-16 00:51N 29°44' W 095°02'2 4.9
2018-Jun-16 00:30N 29°42' W 095°01'2 5.0
2018-Jun-16 00:00N 29°41' W 094°59'4 5.1
2018-Jun-15 23:17N 29°37' W 094°57'2 5.4
2018-Jun-15 22:53N 29°35' W 094°56'13 4.5
2018-Jun-15 19:54N 29°23' W 094°49'2 5.5
2018-Jun-15 19:30N 29°22' W 094°47'2 4.7
2018-Jun-15 19:00N 29°19' W 094°47'2 3.8
2018-Jun-15 18:30N 29°19' W 094°49'0 0.0
2018-Jun-15 18:00N 29°19' W 094°49'0 0.0
2018-Jun-15 17:30N 29°19' W 094°49'0 0.0
2018-Jun-15 17:00N 29°19' W 094°49'0 0.0
2018-Jun-15 16:30N 29°19' W 094°49'0 0.0
2018-Jun-15 16:00N 29°19' W 094°49'0 0.0
2018-Jun-15 15:00N 29°19' W 094°49'0 0.0
2018-Jun-15 14:30N 29°19' W 094°49'0 0.0
2018-Jun-15 14:00N 29°19' W 094°49'0 0.0
2018-Jun-15 13:30N 29°19' W 094°49'0 0.0
2018-Jun-15 13:00N 29°19' W 094°49'0 0.0
2018-Jun-15 12:30N 29°19' W 094°49'0 0.7
2018-Jun-15 11:59N 29°19' W 094°48'1 2.4
2018-Jun-15 11:27N 29°19' W 094°47'  

Dump ship's entire track history